webcam facing south webcam facing south


webcam city Arachova webcam city Arachova


webcam city Arachova webcam city Arachova


Thunder radar blitzortung!


Rain radar rain snow radar


Visit our other sites:

Hotel Skamnos

Arachova Weather Station

Skamnos Weather Station

Skamnos Weather2

Arachova Weather2

WU Skamnos

WU Arachova


Other Weather Sites:

Parnassos Snow Forecast

Parnassos Snow Report

Kelaria 1950m

Kelaria 2240m

Fterolaka 2080m



No particular awareness of the weather is required.    There are no Weather-warnings

Nearby METAR Reports

  
1089 - Arachova Meteo, Greece
Distance from station: N 1km
Updated: 20-08-2017 16:34
Partly Cloudy
Partly Cloudy  
 Wind from W
Wind: W 6 km/h
Temperature:  28°C
Dew Point:  12°C
Humidity:  37%
Barometer:  1010 hPa
Clouds:  Partly Cloudy
Visibility:  10 km
Cloud details:  Partly Cloudy 1951 m
2017/08/20 13:34 1089 201334Z 27003KT 9999 SCT064 28/12 Q1010
1155 - Arachova2, Greece
Distance from station: N 1km
Updated: 20-08-2017 16:34
Partly Cloudy
Partly Cloudy  
 Wind from SW
Wind: SW 7 km/h
Temperature:  27°C
Dew Point:  12°C
Humidity:  39%
Barometer:  1012 hPa
Clouds:  Partly Cloudy
Visibility:  10 km
Cloud details:  Partly Cloudy 1798 m
2017/08/20 13:34 1155 201334Z 22504KT 9999 SCT059 27/12 Q1012
1509 - Skamnos Parnassos 1250m, Greece
Distance from station: N 10km
Updated: 20-08-2017 16:34
Clear
Clear  
 Wind from E
Wind: E 4 km/h
Temperature:  26°C
Dew Point:  9°C
Humidity:  34%
Barometer:  1026 hPa
Clouds:  Clear
Visibility:  10 km
2017/08/20 13:34 1509 201334Z 09002KT 9999 SKC 26/09 Q1026
1250 - Parnassos Kelaria 1950m, Greece
Distance from station: NNE 10km
Updated: 20-08-2017 16:34
Mostly Cloudy
Mostly Cloudy  
 Wind from NNW
Wind: NNW 11 km/h
Temperature:  20°C
Dew Point:  9°C
Humidity:  49%
Barometer:  1014 hPa
Clouds:  Mostly Cloudy
Visibility:  10 km
Cloud details:  Mostly Cloudy 1280 m
2017/08/20 13:34 1250 201334Z 33706KT 9999 BKN042 20/09 Q1014
1126 - Parnassos Fterolaka 2080m, Greece
Distance from station: NNE 10km
Updated: 21-03-2015 01:04
NOT Current
Few Clouds
Few Clouds  
 Wind from calm
Wind: Calm
Temperature:  -11°C
Dew Point:  -11°C
Humidity:  100%
Barometer:  1019 hPa
Clouds:  Few Clouds
Visibility:  6 km
Cloud details:  Few Clouds 305 m
2015/03/20 23:04 1126 202304Z 00000KT 6000 FEW010 M11/M11 Q1019
1382 - Parnassos Helcules 2240m, Greece
Distance from station: NNE 10km
Updated: 20-04-2015 13:20
NOT Current
Fog
Fog  
 Wind from SW
Wind: SW 7 km/h
Temperature:  1°C
Wind Chill:  -2°C
Dew Point:  1°C
Humidity:  100%
Barometer:  1009 hPa
Summary:  Fog
Visibility:  5 km
2015/04/20 10:20 1382 201020Z 22504KT 5000 FG 01/01 Q1009
1219 - Anrikyra, Greece
Distance from station: S 30km
Updated: 19-08-2017 08:34
NOT Current
Clear
Clear  
 Wind from NNW
Wind: NNW 13 km/h
Temperature:  26°C
Dew Point:  13°C
Humidity:  45%
Barometer:  1013 hPa
Clouds:  Clear
Visibility:  10 km
2017/08/19 05:34 1219 190534Z 33707KT 9999 SKC 26/13 Q1013
1015 - Galaxeidi, Greece
Distance from station: S 30km
Updated: 06-08-2017 17:48
NOT Current
Clear
Clear  
 Wind from S
Wind: S 4 km/h
Temperature:  35°C
Dew Point:  18°C
Humidity:  36%
Barometer:  1018 hPa
Clouds:  Clear
Visibility:  10 km
2017/08/06 14:48 1015 061448Z 18002KT 9999 SKC 35/18 Q1018
1088 - Amfikleia, Greece
Distance from station: N 20km
Updated: 20-08-2017 16:34
Clear
Clear  
 Wind from ENE
Wind: ENE 2 km/h
Temperature:  34°C
Dew Point:  15°C
Humidity:  32%
Barometer:  1010 hPa
Clouds:  Clear
Visibility:  10 km
2017/08/20 13:34 1088 201334Z 06701KT 9999 SKC 34/15 Q1010
1337 - Polydroso, Greece
Distance from station: N 20km
Updated: 20-08-2017 16:34
Clear
Clear  
 Wind from calm
Wind: Calm
Temperature:  34°C
Dew Point:  14°C
Humidity:  30%
Barometer:  1010 hPa
Clouds:  Clear
Visibility:  10 km
2017/08/20 13:34 1337 201334Z 00000KT 9999 SKC 34/14 Q1010

Script developed by  Saratoga-weather.org Adapted for the template by  Weerstation Leuven